Time;durP1;ratioP1;P1;durP2;ratioP2;P2;SDS_P1;SDS_P2;PMS_P1;PMS_P2;Temp;Humidity;BMP_temperature;BMP_pressure;BME280_temperature;BME280_humidity;BME280_pressure;Samples;Min_cycle;Max_cycle;Signal;HPM_P1;HPM_P2
2021/08/27 00:01:45;;;;;;;;;;;20.20;35.20;;;;;;4359400;32;19957;-37
2021/08/27 00:04:11;;;;;;;;;;;20.20;35.20;;;;;;4359673;32;19968;-38
2021/08/27 00:06:37;;;;;;;;;;;20.20;35.40;;;;;;4359776;32;19950;-36
2021/08/27 00:09:03;;;;;;;;;;;20.10;35.40;;;;;;4359614;32;20064;-37
2021/08/27 00:11:29;;;;;;;;;;;20.10;35.50;;;;;;4345710;32;19954;-36
2021/08/27 00:13:55;;;;;;;;;;;20.10;35.50;;;;;;4359893;32;19954;-37
2021/08/27 00:16:22;;;;;;;;;;;20.10;35.50;;;;;;4360011;32;20035;-39
2021/08/27 00:18:48;;;;;;;;;;;20.10;35.60;;;;;;4359679;32;20005;-39
2021/08/27 00:21:14;;;;;;;;;;;20.10;35.70;;;;;;4345290;32;19958;-38
2021/08/27 00:23:40;;;;;;;;;;;20.00;35.70;;;;;;4359552;32;20323;-39
2021/08/27 00:26:06;;;;;;;;;;;20.00;35.80;;;;;;4359571;32;19962;-38
2021/08/27 00:28:33;;;;;;;;;;;20.00;35.80;;;;;;4345800;32;20397;-38
2021/08/27 00:30:59;;;;;;;;;;;20.00;35.90;;;;;;4359652;32;19962;-38
2021/08/27 00:33:25;;;;;;;;;;;19.90;35.80;;;;;;4357774;32;20373;-39
2021/08/27 00:35:52;;;;;;;;;;;20.00;35.90;;;;;;4359528;32;20401;-37
2021/08/27 00:38:18;;;;;;;;;;;20.00;35.90;;;;;;4359255;32;19968;-37
2021/08/27 00:40:44;;;;;;;;;;;19.90;35.90;;;;;;4359324;32;19954;-38
2021/08/27 00:43:12;;;;;;;;;;;19.90;36.00;;;;;;4358020;32;19958;-39
2021/08/27 00:45:43;;;;;;;;;;;19.90;36.00;;;;;;4359199;32;19957;-38
2021/08/27 00:48:10;;;;;;;;;;;19.90;36.00;;;;;;4359495;32;19962;-38
2021/08/27 00:50:37;;;;;;;;;;;19.90;36.00;;;;;;4357939;32;19965;-38
2021/08/27 00:53:03;;;;;;;;;;;19.90;36.00;;;;;;4357308;32;19950;-37
2021/08/27 00:55:29;;;;;;;;;;;19.90;36.00;;;;;;4358961;32;19966;-37
2021/08/27 00:57:56;;;;;;;;;;;19.90;36.10;;;;;;4358680;32;19990;-36
2021/08/27 01:00:23;;;;;;;;;;;19.90;36.10;;;;;;4358989;32;19950;-37
2021/08/27 01:02:53;;;;;;;;;;;19.80;36.20;;;;;;4359145;32;19954;-37
2021/08/27 01:05:19;;;;;;;;;;;19.80;36.20;;;;;;4359359;32;19957;-38
2021/08/27 01:08:13;;;;;;;;;;;19.80;36.20;;;;;;4359056;32;20391;-37
2021/08/27 01:10:47;;;;;;;;;;;19.90;36.30;;;;;;4340929;32;20048;-37
2021/08/27 01:13:16;;;;;;;;;;;19.80;36.30;;;;;;4341896;33;20021;-38
2021/08/27 01:16:00;;;;;;;;;;;19.80;36.40;;;;;;4341903;33;19965;-38
2021/08/27 01:18:39;;;;;;;;;;;19.80;36.50;;;;;;4341414;33;19959;-38
2021/08/27 01:21:19;;;;;;;;;;;19.80;36.50;;;;;;4339862;33;19969;-37
2021/08/27 01:23:58;;;;;;;;;;;19.70;36.60;;;;;;4341864;32;20061;-38
2021/08/27 01:26:34;;;;;;;;;;;19.70;36.70;;;;;;4341111;33;19958;-38
2021/08/27 01:29:01;;;;;;;;;;;19.70;36.70;;;;;;4341352;32;19971;-39
2021/08/27 01:31:33;;;;;;;;;;;19.60;36.80;;;;;;4347567;32;20521;-38
2021/08/27 01:34:06;;;;;;;;;;;19.60;36.80;;;;;;4355878;32;20061;-37
2021/08/27 01:36:33;;;;;;;;;;;19.60;37.00;;;;;;4356381;32;19986;-38
2021/08/27 01:39:01;;;;;;;;;;;19.50;37.00;;;;;;4355795;32;19970;-37
2021/08/27 01:41:27;;;;;;;;;;;19.50;37.10;;;;;;4357173;32;19950;-37
2021/08/27 01:43:53;;;;;;;;;;;19.50;37.20;;;;;;4332310;32;19997;-36
2021/08/27 01:46:19;;;;;;;;;;;19.50;37.20;;;;;;4332250;32;19960;-36
2021/08/27 01:48:45;;;;;;;;;;;19.50;37.20;;;;;;4332401;32;19984;-37
2021/08/27 01:51:11;;;;;;;;;;;19.50;37.30;;;;;;4320291;32;20043;-37
2021/08/27 01:53:38;;;;;;;;;;;19.50;37.30;;;;;;4320078;32;19957;-37
2021/08/27 01:56:04;;;;;;;;;;;19.50;37.30;;;;;;4358025;32;19960;-38
2021/08/27 01:58:32;;;;;;;;;;;19.50;37.30;;;;;;4358231;32;20358;-38
2021/08/27 02:00:58;;;;;;;;;;;19.50;37.20;;;;;;4358412;32;19954;-38
2021/08/27 02:03:26;;;;;;;;;;;19.50;37.20;;;;;;4344727;32;20021;-38
2021/08/27 02:05:52;;;;;;;;;;;19.50;37.30;;;;;;4344292;32;19965;-38
2021/08/27 02:08:20;;;;;;;;;;;19.50;37.30;;;;;;4332095;32;19973;-38
2021/08/27 02:10:46;;;;;;;;;;;19.50;37.40;;;;;;4344628;32;19953;-38
2021/08/27 02:13:12;;;;;;;;;;;19.40;37.40;;;;;;4344042;32;20387;-38
2021/08/27 02:15:39;;;;;;;;;;;19.40;37.50;;;;;;4344271;32;20037;-38
2021/08/27 02:18:05;;;;;;;;;;;19.40;37.60;;;;;;4344472;32;19996;-39
2021/08/27 02:20:31;;;;;;;;;;;19.40;37.60;;;;;;4344061;32;19994;-39
2021/08/27 02:22:57;;;;;;;;;;;19.40;37.60;;;;;;4359249;32;19957;-39
2021/08/27 02:25:26;;;;;;;;;;;19.40;37.60;;;;;;4347450;32;19961;-38
2021/08/27 02:27:53;;;;;;;;;;;19.50;37.70;;;;;;4360999;32;20047;-39
2021/08/27 02:30:19;;;;;;;;;;;19.50;37.70;;;;;;4359703;32;19978;-38
2021/08/27 02:32:45;;;;;;;;;;;19.50;37.60;;;;;;4358475;32;20409;-37
2021/08/27 02:35:12;;;;;;;;;;;19.60;37.50;;;;;;4347300;32;20071;-39
2021/08/27 02:37:39;;;;;;;;;;;19.80;37.40;;;;;;4346764;32;20491;-37
2021/08/27 02:40:06;;;;;;;;;;;19.80;37.80;;;;;;4335032;32;19989;-37
2021/08/27 02:42:32;;;;;;;;;;;19.90;37.10;;;;;;4361167;32;19961;-38
2021/08/27 02:44:59;;;;;;;;;;;19.90;37.10;;;;;;4360786;32;20451;-38
2021/08/27 02:47:25;;;;;;;;;;;20.00;37.00;;;;;;4360833;32;19998;-38
2021/08/27 02:49:51;;;;;;;;;;;20.00;37.00;;;;;;4347095;32;19960;-39
2021/08/27 02:52:39;;;;;;;;;;;20.00;37.10;;;;;;4361324;32;19967;-38
2021/08/27 02:55:17;;;;;;;;;;;20.00;37.00;;;;;;4360593;32;19989;-38
2021/08/27 02:57:47;;;;;;;;;;;20.10;36.90;;;;;;4360476;32;19997;-37
2021/08/27 03:00:14;;;;;;;;;;;20.20;36.90;;;;;;4347027;32;19956;-38
2021/08/27 03:02:40;;;;;;;;;;;20.30;36.70;;;;;;4334798;32;19973;-38
2021/08/27 03:05:08;;;;;;;;;;;20.40;36.60;;;;;;4334503;32;20417;-38
2021/08/27 03:07:36;;;;;;;;;;;20.50;36.40;;;;;;4360790;32;19966;-39
2021/08/27 03:10:12;;;;;;;;;;;20.70;36.30;;;;;;4360408;32;19958;-39
2021/08/27 03:12:46;;;;;;;;;;;20.70;36.20;;;;;;4346541;32;20368;-37
2021/08/27 03:15:29;;;;;;;;;;;20.80;36.10;;;;;;4328228;33;20000;-38
2021/08/27 03:17:58;;;;;;;;;;;20.90;36.00;;;;;;4317214;33;19958;-37
2021/08/27 03:20:25;;;;;;;;;;;21.00;35.80;;;;;;4328056;33;20025;-37
2021/08/27 03:22:58;;;;;;;;;;;21.00;35.70;;;;;;4316484;33;20038;-38
2021/08/27 03:25:24;;;;;;;;;;;21.20;35.70;;;;;;4328702;33;19993;-38
2021/08/27 03:28:03;;;;;;;;;;;21.30;35.50;;;;;;4315989;33;20375;-38
2021/08/27 03:30:30;;;;;;;;;;;21.40;35.30;;;;;;4305180;33;19997;-38
2021/08/27 03:32:59;;;;;;;;;;;21.60;35.10;;;;;;4330128;33;19985;-37
2021/08/27 03:35:25;;;;;;;;;;;21.60;35.00;;;;;;4330580;33;19981;-38
2021/08/27 03:37:51;;;;;;;;;;;21.80;34.90;;;;;;4318812;33;19965;-37
2021/08/27 03:40:18;;;;;;;;;;;22.00;34.70;;;;;;4342837;33;19967;-38
2021/08/27 03:42:44;;;;;;;;;;;22.10;34.30;;;;;;4343123;33;20083;-38
2021/08/27 03:45:11;;;;;;;;;;;22.20;34.90;;;;;;4330860;33;20363;-37
2021/08/27 03:47:39;;;;;;;;;;;22.30;34.10;;;;;;4318219;33;20033;-38
2021/08/27 03:50:10;;;;;;;;;;;22.30;34.10;;;;;;4342330;33;19990;-38
2021/08/27 03:52:36;;;;;;;;;;;22.40;34.00;;;;;;4350688;32;20001;-37
2021/08/27 03:55:04;;;;;;;;;;;22.50;33.80;;;;;;4358210;32;20053;-37
2021/08/27 03:57:31;;;;;;;;;;;22.70;33.70;;;;;;4370903;32;20405;-38
2021/08/27 03:59:58;;;;;;;;;;;22.80;33.30;;;;;;4359798;32;19965;-37
2021/08/27 04:02:25;;;;;;;;;;;22.90;33.30;;;;;;4359814;32;19982;-38
2021/08/27 04:05:15;;;;;;;;;;;22.90;33.20;;;;;;4370504;32;19965;-38
2021/08/27 04:07:42;;;;;;;;;;;22.90;33.20;;;;;;4359665;32;19973;-38
2021/08/27 04:10:09;;;;;;;;;;;23.00;33.10;;;;;;4359633;32;19955;-37
2021/08/27 04:12:37;;;;;;;;;;;23.20;33.00;;;;;;4359763;32;19957;-38
2021/08/27 04:15:04;;;;;;;;;;;23.40;32.70;;;;;;4359762;32;20045;-38
2021/08/27 04:17:30;;;;;;;;;;;23.50;32.50;;;;;;4370396;32;19965;-37
2021/08/27 04:19:57;;;;;;;;;;;23.70;32.30;;;;;;4359529;32;20028;-38
2021/08/27 04:22:24;;;;;;;;;;;23.80;32.20;;;;;;4360371;32;19962;-38
2021/08/27 04:24:50;;;;;;;;;;;24.00;31.90;;;;;;4358233;32;19969;-38
2021/08/27 04:27:16;;;;;;;;;;;24.20;31.60;;;;;;4359068;32;20471;-38
2021/08/27 04:29:43;;;;;;;;;;;24.50;31.40;;;;;;4359341;32;19973;-38
2021/08/27 04:32:09;;;;;;;;;;;24.70;31.10;;;;;;4370127;32;19966;-38
2021/08/27 04:34:35;;;;;;;;;;;24.90;31.00;;;;;;4341647;33;19966;-38
2021/08/27 04:37:02;;;;;;;;;;;25.00;30.50;;;;;;4341861;33;19961;-38
2021/08/27 04:39:28;;;;;;;;;;;25.10;30.40;;;;;;4312173;33;20487;-38
2021/08/27 04:41:54;;;;;;;;;;;25.30;30.40;;;;;;4312635;33;20092;-38
2021/08/27 04:44:21;;;;;;;;;;;25.40;30.20;;;;;;4311760;33;19971;-37
2021/08/27 04:46:47;;;;;;;;;;;25.50;30.10;;;;;;4312103;33;19970;-38
2021/08/27 04:49:13;;;;;;;;;;;25.70;30.00;;;;;;4312132;33;19967;-39
2021/08/27 04:51:39;;;;;;;;;;;25.80;29.90;;;;;;4311923;33;19959;-38
2021/08/27 04:54:05;;;;;;;;;;;26.00;29.90;;;;;;4300132;33;20038;-38
2021/08/27 04:56:32;;;;;;;;;;;26.10;29.70;;;;;;4312177;33;20037;-39
2021/08/27 04:58:58;;;;;;;;;;;26.20;29.60;;;;;;4312637;33;20030;-38
2021/08/27 05:01:24;;;;;;;;;;;26.30;29.60;;;;;;4312501;33;19963;-39
2021/08/27 05:03:50;;;;;;;;;;;26.50;29.50;;;;;;4312188;33;20068;-38
2021/08/27 05:06:17;;;;;;;;;;;26.60;29.20;;;;;;4311919;33;20060;-38
2021/08/27 05:08:44;;;;;;;;;;;26.70;29.20;;;;;;4311839;33;20048;-38
2021/08/27 05:11:10;;;;;;;;;;;27.00;29.20;;;;;;4327271;32;19992;-39
2021/08/27 05:13:36;;;;;;;;;;;27.10;28.80;;;;;;4373789;32;19961;-38
2021/08/27 05:16:03;;;;;;;;;;;27.20;28.70;;;;;;4373406;32;20047;-38
2021/08/27 05:18:29;;;;;;;;;;;27.40;28.70;;;;;;4373738;32;19969;-38
2021/08/27 05:20:58;;;;;;;;;;;27.50;28.60;;;;;;4326070;33;20451;-38
2021/08/27 05:23:25;;;;;;;;;;;27.60;28.60;;;;;;4314474;33;19974;-38
2021/08/27 05:25:52;;;;;;;;;;;27.70;28.50;;;;;;4326547;33;20053;-38
2021/08/27 05:28:19;;;;;;;;;;;27.80;28.30;;;;;;4326286;33;19966;-38
2021/08/27 05:30:45;;;;;;;;;;;27.90;28.10;;;;;;4324488;33;20040;-39
2021/08/27 05:33:11;;;;;;;;;;;28.10;28.00;;;;;;4311545;33;20038;-38
2021/08/27 05:35:37;;;;;;;;;;;28.30;27.80;;;;;;4311698;33;19985;-39
2021/08/27 05:38:03;;;;;;;;;;;28.40;27.60;;;;;;4299946;33;19991;-39
2021/08/27 05:40:30;;;;;;;;;;;28.50;27.50;;;;;;4311771;33;20438;-39
2021/08/27 05:42:56;;;;;;;;;;;28.70;27.40;;;;;;4311662;33;20038;-39
2021/08/27 05:45:24;;;;;;;;;;;28.80;27.30;;;;;;4311652;33;19966;-39
2021/08/27 05:47:50;;;;;;;;;;;28.90;27.00;;;;;;4311523;33;20016;-39
2021/08/27 05:50:17;;;;;;;;;;;29.00;26.80;;;;;;4311752;33;20041;-38
2021/08/27 05:52:44;;;;;;;;;;;29.10;26.90;;;;;;4311682;33;19970;-39
2021/08/27 05:55:11;;;;;;;;;;;29.10;26.70;;;;;;4311325;33;20011;-40
2021/08/27 05:57:37;;;;;;;;;;;29.20;26.70;;;;;;4320691;32;20046;-38
2021/08/27 06:00:04;;;;;;;;;;;29.30;26.60;;;;;;4358505;32;19959;-38
2021/08/27 06:02:30;;;;;;;;;;;29.50;26.50;;;;;;4358736;32;20025;-38
2021/08/27 06:04:59;;;;;;;;;;;29.60;26.40;;;;;;4358070;32;19974;-38
2021/08/27 06:07:26;;;;;;;;;;;29.80;26.30;;;;;;4358006;32;19961;-38
2021/08/27 06:09:52;;;;;;;;;;;29.90;26.00;;;;;;4357660;32;19969;-38
2021/08/27 06:12:19;;;;;;;;;;;30.10;26.10;;;;;;4357828;32;20068;-38
2021/08/27 06:14:45;;;;;;;;;;;30.20;25.70;;;;;;4358180;32;20062;-38
2021/08/27 06:17:11;;;;;;;;;;;30.30;25.90;;;;;;4325470;33;20138;-39
2021/08/27 06:19:37;;;;;;;;;;;30.50;25.70;;;;;;4325465;33;20044;-37
2021/08/27 06:22:04;;;;;;;;;;;30.70;25.50;;;;;;4325920;33;19959;-40
2021/08/27 06:24:30;;;;;;;;;;;30.80;25.50;;;;;;4326528;33;20113;-39
2021/08/27 06:26:57;;;;;;;;;;;30.80;25.30;;;;;;4326262;33;19998;-38
2021/08/27 06:29:23;;;;;;;;;;;31.00;25.20;;;;;;4325580;33;19978;-38
2021/08/27 06:31:49;;;;;;;;;;;31.20;25.10;;;;;;4334424;33;19965;-38
2021/08/27 06:34:15;;;;;;;;;;;31.20;24.90;;;;;;4340596;33;19950;-39
2021/08/27 06:36:41;;;;;;;;;;;31.10;24.60;;;;;;4340822;33;19984;-39
2021/08/27 06:39:10;;;;;;;;;;;31.10;24.80;;;;;;4340813;33;19962;-38
2021/08/27 06:41:36;;;;;;;;;;;31.00;25.00;;;;;;4340832;33;19973;-38
2021/08/27 06:44:02;;;;;;;;;;;31.10;24.80;;;;;;4340977;33;19982;-39
2021/08/27 06:46:29;;;;;;;;;;;30.90;24.80;;;;;;4340605;33;19977;-39
2021/08/27 06:48:55;;;;;;;;;;;30.90;25.00;;;;;;4340290;33;19988;-39
2021/08/27 06:51:21;;;;;;;;;;;31.00;25.10;;;;;;4340604;33;19965;-38
2021/08/27 06:53:53;;;;;;;;;;;31.10;25.10;;;;;;4345287;32;19954;-38
2021/08/27 06:56:22;;;;;;;;;;;31.10;25.00;;;;;;4372772;32;20065;-38
2021/08/27 06:58:49;;;;;;;;;;;31.10;25.00;;;;;;4372843;32;19949;-38
2021/08/27 07:01:15;;;;;;;;;;;31.00;24.90;;;;;;4358755;32;20409;-39
2021/08/27 07:03:41;;;;;;;;;;;31.10;24.80;;;;;;4372359;32;20369;-39
2021/08/27 07:06:07;;;;;;;;;;;31.20;24.90;;;;;;4372994;32;20075;-38
2021/08/27 07:08:33;;;;;;;;;;;31.30;24.70;;;;;;4374643;32;19969;-39
2021/08/27 07:11:00;;;;;;;;;;;31.30;24.50;;;;;;4375182;32;20038;-38
2021/08/27 07:13:26;;;;;;;;;;;31.50;24.60;;;;;;4375656;32;20545;-39
2021/08/27 07:15:55;;;;;;;;;;;31.40;24.30;;;;;;4375605;32;20118;-38
2021/08/27 07:18:22;;;;;;;;;;;31.30;24.20;;;;;;4375724;32;19983;-38
2021/08/27 07:20:48;;;;;;;;;;;31.30;24.50;;;;;;4375336;32;19961;-39
2021/08/27 07:23:15;;;;;;;;;;;31.50;24.40;;;;;;4375406;32;20383;-38
2021/08/27 07:25:42;;;;;;;;;;;31.50;24.50;;;;;;4375168;32;19961;-39
2021/08/27 07:28:08;;;;;;;;;;;31.60;24.40;;;;;;4374857;32;20001;-38
2021/08/27 07:30:36;;;;;;;;;;;31.60;24.20;;;;;;4374349;32;20000;-39
2021/08/27 07:33:03;;;;;;;;;;;31.70;23.90;;;;;;4360284;32;20029;-38
2021/08/27 07:35:29;;;;;;;;;;;31.80;24.10;;;;;;4360291;32;19946;-38
2021/08/27 07:37:55;;;;;;;;;;;31.80;24.20;;;;;;4360136;32;20021;-39
2021/08/27 07:40:21;;;;;;;;;;;31.90;24.10;;;;;;4359988;32;19968;-37
2021/08/27 07:42:48;;;;;;;;;;;32.10;24.10;;;;;;4359821;32;19954;-39
2021/08/27 07:45:14;;;;;;;;;;;32.20;24.30;;;;;;4359565;32;20540;-38
2021/08/27 07:47:41;;;;;;;;;;;32.40;24.40;;;;;;4359385;32;20362;-39
2021/08/27 07:50:08;;;;;;;;;;;32.40;23.70;;;;;;4359783;32;19989;-38
2021/08/27 07:52:34;;;;;;;;;;;32.50;23.70;;;;;;4360284;32;19962;-39
2021/08/27 07:55:01;;;;;;;;;;;32.50;23.70;;;;;;4360014;32;20071;-38
2021/08/27 07:57:27;;;;;;;;;;;32.70;23.70;;;;;;4359788;32;19965;-38
2021/08/27 07:59:54;;;;;;;;;;;32.90;23.60;;;;;;4359755;32;19988;-39
2021/08/27 08:02:20;;;;;;;;;;;33.00;23.50;;;;;;4359856;32;20406;-38
2021/08/27 08:04:46;;;;;;;;;;;33.00;23.40;;;;;;4359344;32;20034;-39
2021/08/27 08:07:12;;;;;;;;;;;33.10;23.60;;;;;;4359572;32;20050;-39
2021/08/27 08:09:39;;;;;;;;;;;33.10;23.60;;;;;;4359554;32;19962;-38
2021/08/27 08:12:05;;;;;;;;;;;33.20;23.70;;;;;;4358182;32;19982;-39
2021/08/27 08:14:31;;;;;;;;;;;33.30;23.60;;;;;;4359719;32;20015;-38
2021/08/27 08:16:58;;;;;;;;;;;33.20;23.20;;;;;;4359875;32;20037;-38
2021/08/27 08:19:24;;;;;;;;;;;33.30;23.20;;;;;;4357054;32;19969;-38
2021/08/27 08:21:50;;;;;;;;;;;33.30;23.30;;;;;;4359375;32;19961;-38
2021/08/27 08:24:16;;;;;;;;;;;33.40;23.30;;;;;;4359571;32;19964;-39
2021/08/27 08:26:42;;;;;;;;;;;33.50;23.10;;;;;;4359471;32;20460;-38
2021/08/27 08:29:09;;;;;;;;;;;33.60;23.40;;;;;;4359749;32;19956;-37
2021/08/27 08:31:35;;;;;;;;;;;33.60;23.00;;;;;;4359204;32;19973;-38
2021/08/27 08:34:01;;;;;;;;;;;33.60;22.80;;;;;;4359243;32;19989;-39
2021/08/27 08:36:28;;;;;;;;;;;33.60;23.00;;;;;;4359400;32;19961;-37
2021/08/27 08:38:54;;;;;;;;;;;33.60;22.80;;;;;;4359043;32;19996;-37
2021/08/27 08:41:21;;;;;;;;;;;33.60;22.40;;;;;;4359198;32;19984;-38
2021/08/27 08:43:48;;;;;;;;;;;33.60;22.20;;;;;;4359058;32;19974;-37
2021/08/27 08:46:14;;;;;;;;;;;33.60;22.50;;;;;;4359099;32;19958;-39
2021/08/27 08:48:44;;;;;;;;;;;33.70;22.50;;;;;;4359143;32;20391;-38
2021/08/27 08:51:11;;;;;;;;;;;33.80;22.40;;;;;;4358707;32;19958;-38
2021/08/27 08:53:40;;;;;;;;;;;33.80;22.60;;;;;;4345148;32;19965;-38
2021/08/27 08:56:08;;;;;;;;;;;33.90;22.60;;;;;;4359186;32;20130;-38
2021/08/27 08:58:34;;;;;;;;;;;34.00;22.60;;;;;;4345159;32;19957;-39
2021/08/27 09:01:01;;;;;;;;;;;34.10;22.60;;;;;;4358704;32;20026;-38
2021/08/27 09:03:27;;;;;;;;;;;34.10;22.90;;;;;;4358708;32;20417;-38
2021/08/27 09:05:53;;;;;;;;;;;34.10;23.00;;;;;;4358772;32;20009;-38
2021/08/27 09:08:37;;;;;;;;;;;34.10;23.00;;;;;;4358650;32;19946;-39
2021/08/27 09:11:27;;;;;;;;;;;34.10;22.70;;;;;;4345202;32;19985;-39
2021/08/27 09:13:55;;;;;;;;;;;34.20;23.00;;;;;;4358927;32;19953;-38
2021/08/27 09:16:29;;;;;;;;;;;34.10;23.00;;;;;;4358463;32;19972;-39
2021/08/27 09:18:56;;;;;;;;;;;34.10;23.00;;;;;;4358660;32;19965;-39
2021/08/27 09:21:37;;;;;;;;;;;34.20;23.10;;;;;;4358564;32;19997;-39
2021/08/27 09:24:20;;;;;;;;;;;34.20;22.50;;;;;;4358642;32;19958;-39
2021/08/27 09:27:01;;;;;;;;;;;34.30;22.70;;;;;;4358528;32;20025;-39
2021/08/27 09:29:37;;;;;;;;;;;34.40;22.80;;;;;;4358543;32;19954;-38
2021/08/27 09:32:25;;;;;;;;;;;34.40;22.60;;;;;;4358242;32;19954;-38
2021/08/27 09:35:05;;;;;;;;;;;34.40;22.30;;;;;;4358666;32;20382;-39
2021/08/27 09:37:39;;;;;;;;;;;34.40;21.90;;;;;;4358324;32;19961;-38
2021/08/27 09:40:08;;;;;;;;;;;34.50;22.10;;;;;;4358557;32;19985;-38
2021/08/27 09:42:42;;;;;;;;;;;34.50;22.30;;;;;;4356810;32;19981;-38
2021/08/27 09:45:09;;;;;;;;;;;34.60;22.40;;;;;;4358541;32;20589;-38
2021/08/27 09:47:35;;;;;;;;;;;34.60;22.30;;;;;;4358033;32;20066;-39
2021/08/27 09:50:24;;;;;;;;;;;34.60;22.40;;;;;;4358465;32;19962;-38
2021/08/27 09:52:54;;;;;;;;;;;34.60;22.50;;;;;;4358479;32;20519;-39
2021/08/27 09:55:21;;;;;;;;;;;34.60;22.50;;;;;;4358438;32;19958;-39
2021/08/27 09:57:47;;;;;;;;;;;34.60;22.10;;;;;;4356816;32;19964;-39
2021/08/27 10:00:20;;;;;;;;;;;34.60;22.20;;;;;;4358029;32;19974;-38
2021/08/27 10:02:47;;;;;;;;;;;34.80;22.30;;;;;;4358696;32;19965;-39
2021/08/27 10:05:14;;;;;;;;;;;34.90;22.30;;;;;;4358528;32;19970;-39
2021/08/27 10:07:41;;;;;;;;;;;34.90;22.00;;;;;;4358491;32;20030;-39
2021/08/27 10:10:12;;;;;;;;;;;34.90;22.00;;;;;;4358226;32;19985;-38
2021/08/27 10:12:40;;;;;;;;;;;34.90;21.80;;;;;;4358186;32;19973;-39
2021/08/27 10:15:08;;;;;;;;;;;34.80;21.90;;;;;;4358016;32;20369;-38
2021/08/27 10:17:35;;;;;;;;;;;34.90;21.90;;;;;;4358340;32;20398;-38
2021/08/27 10:20:06;;;;;;;;;;;34.90;21.90;;;;;;4364833;32;19960;-38
2021/08/27 10:22:32;;;;;;;;;;;34.80;21.80;;;;;;4373102;32;20401;-38
2021/08/27 10:25:04;;;;;;;;;;;34.70;21.80;;;;;;4373434;32;19965;-38
2021/08/27 10:27:30;;;;;;;;;;;34.80;21.80;;;;;;4372930;32;20386;-39
2021/08/27 10:29:56;;;;;;;;;;;34.80;21.60;;;;;;4359198;32;19958;-39
2021/08/27 10:32:41;;;;;;;;;;;34.60;21.50;;;;;;4360230;32;20382;-39
2021/08/27 10:35:11;;;;;;;;;;;34.60;21.60;;;;;;4357542;32;20377;-40
2021/08/27 10:37:44;;;;;;;;;;;34.70;21.60;;;;;;4343805;32;20466;-37
2021/08/27 10:40:22;;;;;;;;;;;34.70;21.40;;;;;;4357704;32;19953;-37
2021/08/27 10:42:56;;;;;;;;;;;34.60;21.50;;;;;;4344766;32;19981;-38
2021/08/27 10:45:45;;;;;;;;;;;34.60;21.70;;;;;;4360853;32;19976;-38
2021/08/27 10:48:12;;;;;;;;;;;34.60;21.60;;;;;;4360561;32;19958;-37
2021/08/27 10:50:46;;;;;;;;;;;34.60;21.60;;;;;;4360482;32;20057;-37
2021/08/27 10:53:32;;;;;;;;;;;34.50;21.40;;;;;;4360695;32;19954;-37
2021/08/27 10:56:37;;;;;;;;;;;34.50;21.30;;;;;;4360752;32;19997;-38
2021/08/27 10:59:07;;;;;;;;;;;34.50;21.40;;;;;;4342853;32;19969;-38
2021/08/27 11:01:37;;;;;;;;;;;34.60;21.30;;;;;;4347107;32;20551;-37
2021/08/27 11:04:09;;;;;;;;;;;34.70;21.30;;;;;;4360904;32;19993;-38
2021/08/27 11:07:04;;;;;;;;;;;34.80;21.20;;;;;;4360765;32;19950;-38
2021/08/27 11:09:31;;;;;;;;;;;34.80;21.40;;;;;;4360580;32;19962;-39
2021/08/27 11:12:11;;;;;;;;;;;34.80;21.40;;;;;;4360770;32;20012;-38
2021/08/27 11:14:39;;;;;;;;;;;34.90;21.30;;;;;;4360731;32;19966;-38
2021/08/27 11:17:06;;;;;;;;;;;35.00;21.10;;;;;;4360461;32;20384;-39
2021/08/27 11:19:55;;;;;;;;;;;34.90;21.30;;;;;;4360269;32;19993;-40
2021/08/27 11:22:30;;;;;;;;;;;34.90;21.50;;;;;;4353103;32;19972;-39
2021/08/27 11:25:02;;;;;;;;;;;35.00;22.10;;;;;;4360279;32;20038;-38
2021/08/27 11:27:29;;;;;;;;;;;35.10;21.70;;;;;;4360138;32;20074;-38
2021/08/27 11:29:58;;;;;;;;;;;35.10;21.30;;;;;;4346187;32;20583;-39
2021/08/27 11:32:28;;;;;;;;;;;35.00;21.30;;;;;;4358824;32;19953;-39
2021/08/27 11:34:58;;;;;;;;;;;35.00;21.70;;;;;;4374844;32;20491;-39
2021/08/27 11:37:29;;;;;;;;;;;34.90;21.70;;;;;;4375164;32;19961;-39
2021/08/27 11:39:55;;;;;;;;;;;34.80;21.80;;;;;;4374895;32;20034;-39
2021/08/27 11:42:21;;;;;;;;;;;34.80;21.90;;;;;;4375014;32;19957;-38
2021/08/27 11:45:09;;;;;;;;;;;34.90;21.90;;;;;;4375509;32;20018;-39
2021/08/27 11:47:45;;;;;;;;;;;34.80;21.60;;;;;;4375318;32;19965;-38
2021/08/27 11:50:22;;;;;;;;;;;34.80;21.60;;;;;;4375118;32;19966;-38
2021/08/27 11:52:52;;;;;;;;;;;35.00;21.70;;;;;;4375300;32;19965;-39
2021/08/27 11:55:18;;;;;;;;;;;35.00;21.80;;;;;;4375001;32;20000;-39
2021/08/27 11:58:02;;;;;;;;;;;35.00;21.90;;;;;;4360645;32;19972;-37
2021/08/27 12:00:36;;;;;;;;;;;35.00;21.90;;;;;;4374647;32;19970;-39
2021/08/27 12:03:03;;;;;;;;;;;34.90;21.80;;;;;;4375046;32;19957;-39
2021/08/27 12:05:29;;;;;;;;;;;34.90;21.90;;;;;;4360847;32;19963;-38
2021/08/27 12:08:06;;;;;;;;;;;34.90;21.90;;;;;;4360385;32;20389;-38
2021/08/27 12:10:33;;;;;;;;;;;34.90;21.80;;;;;;4374814;32;20054;-39
2021/08/27 12:13:00;;;;;;;;;;;34.80;21.80;;;;;;4374497;32;20042;-40
2021/08/27 12:15:31;;;;;;;;;;;34.70;21.70;;;;;;4374492;32;20030;-37
2021/08/27 12:18:05;;;;;;;;;;;34.60;21.80;;;;;;4374418;32;19968;-38
2021/08/27 12:20:34;;;;;;;;;;;34.40;21.90;;;;;;4374256;32;19957;-38
2021/08/27 12:23:08;;;;;;;;;;;34.20;22.10;;;;;;4373896;32;20454;-39
2021/08/27 12:25:41;;;;;;;;;;;34.00;22.10;;;;;;4374717;32;19954;-39
2021/08/27 12:28:08;;;;;;;;;;;33.90;22.20;;;;;;4374156;32;19965;-38
2021/08/27 12:30:34;;;;;;;;;;;33.90;22.10;;;;;;4373145;32;19962;-38
2021/08/27 12:33:02;;;;;;;;;;;34.00;22.00;;;;;;4359391;32;19965;-39
2021/08/27 12:35:30;;;;;;;;;;;34.10;22.10;;;;;;4359620;32;19977;-39
2021/08/27 12:37:56;;;;;;;;;;;34.10;21.90;;;;;;4359475;32;20093;-39
2021/08/27 12:40:23;;;;;;;;;;;34.10;21.80;;;;;;4359604;32;20111;-38
2021/08/27 12:43:09;;;;;;;;;;;34.10;21.50;;;;;;4359387;32;19953;-37
2021/08/27 12:45:49;;;;;;;;;;;34.00;21.50;;;;;;4359373;32;19966;-39
2021/08/27 12:48:26;;;;;;;;;;;33.90;22.00;;;;;;4359395;32;20539;-38
2021/08/27 12:50:54;;;;;;;;;;;33.90;22.00;;;;;;4345939;32;20433;-39
2021/08/27 12:53:31;;;;;;;;;;;33.80;22.00;;;;;;4358947;32;19953;-38
2021/08/27 12:56:17;;;;;;;;;;;33.70;22.20;;;;;;4358763;32;19950;-39
2021/08/27 12:58:45;;;;;;;;;;;33.80;22.10;;;;;;4358713;32;19961;-37
2021/08/27 13:01:12;;;;;;;;;;;33.80;22.00;;;;;;4345173;32;19957;-38
2021/08/27 13:03:39;;;;;;;;;;;33.80;22.20;;;;;;4358889;32;20411;-38
2021/08/27 13:06:05;;;;;;;;;;;33.80;22.60;;;;;;4357853;32;20396;-38
2021/08/27 13:08:32;;;;;;;;;;;33.80;23.30;;;;;;4344597;32;19962;-38
2021/08/27 13:11:06;;;;;;;;;;;33.70;23.50;;;;;;4358653;32;19969;-39
2021/08/27 13:13:36;;;;;;;;;;;33.70;23.50;;;;;;4359051;32;19957;-39
2021/08/27 13:16:07;;;;;;;;;;;33.60;23.60;;;;;;4358863;32;19958;-38
2021/08/27 13:18:48;;;;;;;;;;;33.60;23.40;;;;;;4358401;32;19962;-39
2021/08/27 13:21:16;;;;;;;;;;;33.50;23.30;;;;;;4358615;32;20038;-39
2021/08/27 13:23:42;;;;;;;;;;;33.50;23.50;;;;;;4344997;32;19946;-39
2021/08/27 13:26:15;;;;;;;;;;;33.40;23.70;;;;;;4344948;32;19961;-38
2021/08/27 13:28:41;;;;;;;;;;;33.40;22.60;;;;;;4358360;32;19954;-37
2021/08/27 13:31:08;;;;;;;;;;;33.40;22.90;;;;;;4358711;32;20063;-38
2021/08/27 13:33:34;;;;;;;;;;;33.30;23.00;;;;;;4358336;32;19961;-39
2021/08/27 13:36:00;;;;;;;;;;;33.20;23.10;;;;;;4358609;32;20046;-38
2021/08/27 13:38:26;;;;;;;;;;;33.10;23.20;;;;;;4358708;32;19973;-37
2021/08/27 13:40:54;;;;;;;;;;;33.10;23.40;;;;;;4358319;32;19972;-39
2021/08/27 13:43:20;;;;;;;;;;;33.10;23.40;;;;;;4358457;32;20392;-38
2021/08/27 13:45:46;;;;;;;;;;;33.10;23.40;;;;;;4358461;32;20421;-38
2021/08/27 13:48:13;;;;;;;;;;;33.00;24.20;;;;;;4356648;32;19966;-38
2021/08/27 13:50:39;;;;;;;;;;;32.90;24.60;;;;;;4358336;32;20072;-38
2021/08/27 13:53:05;;;;;;;;;;;32.80;24.70;;;;;;4356977;32;19962;-38
2021/08/27 13:55:31;;;;;;;;;;;32.70;24.80;;;;;;4358052;32;20033;-39
2021/08/27 13:57:57;;;;;;;;;;;32.70;24.80;;;;;;4358037;32;19953;-38
2021/08/27 14:00:24;;;;;;;;;;;32.70;24.30;;;;;;4358016;32;19960;-38
2021/08/27 14:02:50;;;;;;;;;;;32.70;24.30;;;;;;4358324;32;19997;-39
2021/08/27 14:05:16;;;;;;;;;;;32.70;24.40;;;;;;4358124;32;19973;-38
2021/08/27 14:07:43;;;;;;;;;;;32.70;25.00;;;;;;4356486;32;20395;-39
2021/08/27 14:10:09;;;;;;;;;;;32.60;25.00;;;;;;4358190;32;19985;-38
2021/08/27 14:12:36;;;;;;;;;;;32.50;25.10;;;;;;4358414;32;20058;-39
2021/08/27 14:15:03;;;;;;;;;;;32.40;25.40;;;;;;4357994;32;20366;-39
2021/08/27 14:17:29;;;;;;;;;;;32.20;25.40;;;;;;4360321;32;19966;-39
2021/08/27 14:19:55;;;;;;;;;;;32.00;25.60;;;;;;4366547;32;20073;-38
2021/08/27 14:22:21;;;;;;;;;;;31.90;25.70;;;;;;4376285;32;20060;-38
2021/08/27 14:24:48;;;;;;;;;;;31.80;25.80;;;;;;4376259;32;19992;-39
2021/08/27 14:27:14;;;;;;;;;;;31.70;25.80;;;;;;4375709;32;20046;-39